sensor_id;sensor_type;location;lat;lon;timestamp;temperature;humidity
21255;DHT22;10785;50.674;17.954;2022-08-04T00:02:23;19.70;99.90
21255;DHT22;10785;50.674;17.954;2022-08-04T00:05:00;19.60;99.90
21255;DHT22;10785;50.674;17.954;2022-08-04T00:07:38;19.60;99.90
21255;DHT22;10785;50.674;17.954;2022-08-04T00:10:14;19.60;99.90
21255;DHT22;10785;50.674;17.954;2022-08-04T00:12:47;19.50;99.90
21255;DHT22;10785;50.674;17.954;2022-08-04T00:15:17;19.50;99.90
21255;DHT22;10785;50.674;17.954;2022-08-04T00:17:50;19.50;99.90
21255;DHT22;10785;50.674;17.954;2022-08-04T00:20:23;19.50;99.90
21255;DHT22;10785;50.674;17.954;2022-08-04T00:22:59;19.40;99.90
21255;DHT22;10785;50.674;17.954;2022-08-04T00:25:31;19.40;99.90
21255;DHT22;10785;50.674;17.954;2022-08-04T00:28:02;19.30;99.90
21255;DHT22;10785;50.674;17.954;2022-08-04T00:30:32;19.30;99.90
21255;DHT22;10785;50.674;17.954;2022-08-04T00:33:02;19.20;99.90
21255;DHT22;10785;50.674;17.954;2022-08-04T00:35:32;19.20;99.90
21255;DHT22;10785;50.674;17.954;2022-08-04T00:38:02;19.10;99.90
21255;DHT22;10785;50.674;17.954;2022-08-04T00:40:41;19.00;99.90
21255;DHT22;10785;50.674;17.954;2022-08-04T00:43:20;19.00;99.90
21255;DHT22;10785;50.674;17.954;2022-08-04T00:49:10;18.80;99.90
21255;DHT22;10785;50.674;17.954;2022-08-04T00:51:48;18.80;99.90
21255;DHT22;10785;50.674;17.954;2022-08-04T00:54:45;18.80;99.90
21255;DHT22;10785;50.674;17.954;2022-08-04T00:57:30;18.70;99.90
21255;DHT22;10785;50.674;17.954;2022-08-04T01:00:06;18.70;99.90
21255;DHT22;10785;50.674;17.954;2022-08-04T01:02:50;18.70;99.90
21255;DHT22;10785;50.674;17.954;2022-08-04T01:05:32;18.70;99.90
21255;DHT22;10785;50.674;17.954;2022-08-04T01:08:15;18.80;99.90
21255;DHT22;10785;50.674;17.954;2022-08-04T01:10:59;18.80;99.90
21255;DHT22;10785;50.674;17.954;2022-08-04T01:13:50;18.90;99.90
21255;DHT22;10785;50.674;17.954;2022-08-04T01:16:25;18.90;99.90
21255;DHT22;10785;50.674;17.954;2022-08-04T01:18:58;18.80;99.90
21255;DHT22;10785;50.674;17.954;2022-08-04T01:25:00;18.90;99.90
21255;DHT22;10785;50.674;17.954;2022-08-04T01:27:48;18.90;99.90
21255;DHT22;10785;50.674;17.954;2022-08-04T01:30:24;18.90;99.90
21255;DHT22;10785;50.674;17.954;2022-08-04T01:32:59;19.00;99.90
21255;DHT22;10785;50.674;17.954;2022-08-04T01:35:34;19.00;99.90
21255;DHT22;10785;50.674;17.954;2022-08-04T01:38:18;19.00;99.90
21255;DHT22;10785;50.674;17.954;2022-08-04T01:40:53;19.00;99.90
21255;DHT22;10785;50.674;17.954;2022-08-04T01:43:22;19.10;99.90
21255;DHT22;10785;50.674;17.954;2022-08-04T01:45:57;19.10;99.90
21255;DHT22;10785;50.674;17.954;2022-08-04T01:48:26;19.10;99.90
21255;DHT22;10785;50.674;17.954;2022-08-04T01:50:57;19.10;99.90
21255;DHT22;10785;50.674;17.954;2022-08-04T01:53:29;19.10;99.90
21255;DHT22;10785;50.674;17.954;2022-08-04T01:56:00;19.10;99.90
21255;DHT22;10785;50.674;17.954;2022-08-04T01:58:34;19.10;99.90
21255;DHT22;10785;50.674;17.954;2022-08-04T02:01:08;19.10;99.90
21255;DHT22;10785;50.674;17.954;2022-08-04T02:03:39;19.00;99.90
21255;DHT22;10785;50.674;17.954;2022-08-04T02:06:31;19.00;99.90
21255;DHT22;10785;50.674;17.954;2022-08-04T02:09:10;18.90;99.90
21255;DHT22;10785;50.674;17.954;2022-08-04T02:11:40;18.90;99.90
21255;DHT22;10785;50.674;17.954;2022-08-04T02:14:18;18.80;99.90
21255;DHT22;10785;50.674;17.954;2022-08-04T02:17:10;18.70;99.90
21255;DHT22;10785;50.674;17.954;2022-08-04T02:20:05;18.60;99.90
21255;DHT22;10785;50.674;17.954;2022-08-04T02:22:40;18.50;99.90
21255;DHT22;10785;50.674;17.954;2022-08-04T02:25:19;18.50;99.90
21255;DHT22;10785;50.674;17.954;2022-08-04T02:27:55;18.50;99.90
21255;DHT22;10785;50.674;17.954;2022-08-04T02:30:32;18.40;99.90
21255;DHT22;10785;50.674;17.954;2022-08-04T02:33:09;18.30;99.90
21255;DHT22;10785;50.674;17.954;2022-08-04T02:35:40;18.40;99.90
21255;DHT22;10785;50.674;17.954;2022-08-04T02:38:23;18.40;99.90
21255;DHT22;10785;50.674;17.954;2022-08-04T02:40:53;18.40;99.90
21255;DHT22;10785;50.674;17.954;2022-08-04T02:43:27;18.40;99.90
21255;DHT22;10785;50.674;17.954;2022-08-04T02:46:20;18.30;99.90
21255;DHT22;10785;50.674;17.954;2022-08-04T02:48:51;18.30;99.90
21255;DHT22;10785;50.674;17.954;2022-08-04T02:51:26;18.20;99.90
21255;DHT22;10785;50.674;17.954;2022-08-04T02:53:57;18.20;99.90
21255;DHT22;10785;50.674;17.954;2022-08-04T02:56:28;18.10;99.90
21255;DHT22;10785;50.674;17.954;2022-08-04T02:58:59;18.10;99.90
21255;DHT22;10785;50.674;17.954;2022-08-04T03:01:28;18.10;99.90
21255;DHT22;10785;50.674;17.954;2022-08-04T03:04:26;18.10;99.90
21255;DHT22;10785;50.674;17.954;2022-08-04T03:13:33;17.90;99.90
21255;DHT22;10785;50.674;17.954;2022-08-04T03:19:39;18.00;99.90
21255;DHT22;10785;50.674;17.954;2022-08-04T03:22:34;18.00;99.90
21255;DHT22;10785;50.674;17.954;2022-08-04T03:26:06;17.90;99.90
21255;DHT22;10785;50.674;17.954;2022-08-04T03:32:33;17.90;99.90
21255;DHT22;10785;50.674;17.954;2022-08-04T03:35:40;17.90;99.90
21255;DHT22;10785;50.674;17.954;2022-08-04T03:38:42;17.90;99.90
21255;DHT22;10785;50.674;17.954;2022-08-04T03:41:45;18.00;99.90
21255;DHT22;10785;50.674;17.954;2022-08-04T03:51:30;19.40;99.90
21255;DHT22;10785;50.674;17.954;2022-08-04T03:57:40;20.80;99.90
21255;DHT22;10785;50.674;17.954;2022-08-04T04:00:13;21.50;99.90
21255;DHT22;10785;50.674;17.954;2022-08-04T04:06:13;22.10;99.90
21255;DHT22;10785;50.674;17.954;2022-08-04T04:12:34;23.30;98.70
21255;DHT22;10785;50.674;17.954;2022-08-04T04:15:20;23.40;97.00
21255;DHT22;10785;50.674;17.954;2022-08-04T04:18:37;23.40;99.10
21255;DHT22;10785;50.674;17.954;2022-08-04T04:21:27;23.80;95.10
21255;DHT22;10785;50.674;17.954;2022-08-04T04:24:08;24.50;91.00
21255;DHT22;10785;50.674;17.954;2022-08-04T04:26:54;24.60;85.90
21255;DHT22;10785;50.674;17.954;2022-08-04T04:32:51;25.20;76.00
21255;DHT22;10785;50.674;17.954;2022-08-04T04:35:37;25.50;63.20
21255;DHT22;10785;50.674;17.954;2022-08-04T04:38:34;26.00;55.90
21255;DHT22;10785;50.674;17.954;2022-08-04T04:41:20;26.20;51.90
21255;DHT22;10785;50.674;17.954;2022-08-04T04:44:09;26.30;46.10
21255;DHT22;10785;50.674;17.954;2022-08-04T04:46:44;26.70;41.50
21255;DHT22;10785;50.674;17.954;2022-08-04T04:49:21;27.30;35.80
21255;DHT22;10785;50.674;17.954;2022-08-04T04:51:59;27.30;34.40
21255;DHT22;10785;50.674;17.954;2022-08-04T04:54:33;27.50;32.50
21255;DHT22;10785;50.674;17.954;2022-08-04T04:57:10;27.40;30.40
21255;DHT22;10785;50.674;17.954;2022-08-04T04:59:46;27.40;30.00
21255;DHT22;10785;50.674;17.954;2022-08-04T05:02:42;27.60;28.80
21255;DHT22;10785;50.674;17.954;2022-08-04T05:05:29;27.40;28.20
21255;DHT22;10785;50.674;17.954;2022-08-04T05:11:24;28.20;25.70
21255;DHT22;10785;50.674;17.954;2022-08-04T05:14:02;28.70;24.60
21255;DHT22;10785;50.674;17.954;2022-08-04T05:16:58;29.20;22.50
21255;DHT22;10785;50.674;17.954;2022-08-04T05:19:33;29.30;21.60
21255;DHT22;10785;50.674;17.954;2022-08-04T05:22:08;29.30;21.30
21255;DHT22;10785;50.674;17.954;2022-08-04T05:24:43;29.90;20.10
21255;DHT22;10785;50.674;17.954;2022-08-04T05:27:16;30.30;18.50
21255;DHT22;10785;50.674;17.954;2022-08-04T05:29:52;30.00;18.20
21255;DHT22;10785;50.674;17.954;2022-08-04T05:32:25;30.40;18.00
21255;DHT22;10785;50.674;17.954;2022-08-04T05:34:59;30.00;18.10
21255;DHT22;10785;50.674;17.954;2022-08-04T05:37:31;30.50;17.20
21255;DHT22;10785;50.674;17.954;2022-08-04T05:40:03;30.70;16.50
21255;DHT22;10785;50.674;17.954;2022-08-04T05:42:36;30.70;16.70
21255;DHT22;10785;50.674;17.954;2022-08-04T05:45:07;31.10;16.10
21255;DHT22;10785;50.674;17.954;2022-08-04T05:47:37;31.20;15.90
21255;DHT22;10785;50.674;17.954;2022-08-04T05:50:07;31.50;15.30
21255;DHT22;10785;50.674;17.954;2022-08-04T05:52:36;31.00;16.20
21255;DHT22;10785;50.674;17.954;2022-08-04T05:55:07;31.00;16.10
21255;DHT22;10785;50.674;17.954;2022-08-04T05:57:59;31.10;16.30
21255;DHT22;10785;50.674;17.954;2022-08-04T06:00:30;31.00;16.70
21255;DHT22;10785;50.674;17.954;2022-08-04T06:03:08;31.60;16.20
21255;DHT22;10785;50.674;17.954;2022-08-04T06:05:38;31.70;15.70
21255;DHT22;10785;50.674;17.954;2022-08-04T06:08:09;31.70;16.10
21255;DHT22;10785;50.674;17.954;2022-08-04T06:10:41;31.90;15.60
21255;DHT22;10785;50.674;17.954;2022-08-04T06:13:13;32.60;14.90
21255;DHT22;10785;50.674;17.954;2022-08-04T06:16:05;32.70;14.20
21255;DHT22;10785;50.674;17.954;2022-08-04T06:18:55;33.40;13.50
21255;DHT22;10785;50.674;17.954;2022-08-04T06:21:49;33.40;13.10
21255;DHT22;10785;50.674;17.954;2022-08-04T06:24:19;33.50;13.10
21255;DHT22;10785;50.674;17.954;2022-08-04T06:26:49;33.80;12.60
21255;DHT22;10785;50.674;17.954;2022-08-04T06:29:20;34.00;12.20
21255;DHT22;10785;50.674;17.954;2022-08-04T06:31:55;34.30;11.50
21255;DHT22;10785;50.674;17.954;2022-08-04T06:34:50;34.20;11.50
21255;DHT22;10785;50.674;17.954;2022-08-04T06:37:20;33.80;12.10
21255;DHT22;10785;50.674;17.954;2022-08-04T06:40:11;34.10;11.60
21255;DHT22;10785;50.674;17.954;2022-08-04T06:42:59;33.90;11.40
21255;DHT22;10785;50.674;17.954;2022-08-04T06:45:29;33.90;11.80
21255;DHT22;10785;50.674;17.954;2022-08-04T06:48:02;34.00;11.70
21255;DHT22;10785;50.674;17.954;2022-08-04T06:50:34;34.30;11.30
21255;DHT22;10785;50.674;17.954;2022-08-04T06:53:23;34.30;11.30
21255;DHT22;10785;50.674;17.954;2022-08-04T06:55:53;34.20;11.80
21255;DHT22;10785;50.674;17.954;2022-08-04T06:58:24;33.90;12.00
21255;DHT22;10785;50.674;17.954;2022-08-04T07:00:54;33.80;12.30
21255;DHT22;10785;50.674;17.954;2022-08-04T07:03:30;33.80;12.10
21255;DHT22;10785;50.674;17.954;2022-08-04T07:05:59;34.40;10.80
21255;DHT22;10785;50.674;17.954;2022-08-04T07:08:40;34.60;10.70
21255;DHT22;10785;50.674;17.954;2022-08-04T07:11:10;34.80;10.50
21255;DHT22;10785;50.674;17.954;2022-08-04T07:13:39;34.50;11.00
21255;DHT22;10785;50.674;17.954;2022-08-04T07:16:13;34.20;11.60
21255;DHT22;10785;50.674;17.954;2022-08-04T07:18:43;34.40;11.50
21255;DHT22;10785;50.674;17.954;2022-08-04T07:21:22;34.60;10.20
21255;DHT22;10785;50.674;17.954;2022-08-04T07:23:50;34.30;10.60
21255;DHT22;10785;50.674;17.954;2022-08-04T07:26:19;34.10;10.90
21255;DHT22;10785;50.674;17.954;2022-08-04T07:28:54;34.30;10.60
21255;DHT22;10785;50.674;17.954;2022-08-04T07:31:23;33.70;10.90
21255;DHT22;10785;50.674;17.954;2022-08-04T07:34:03;33.60;11.20
21255;DHT22;10785;50.674;17.954;2022-08-04T07:36:50;32.80;11.50
21255;DHT22;10785;50.674;17.954;2022-08-04T07:39:23;32.30;12.10
21255;DHT22;10785;50.674;17.954;2022-08-04T07:41:57;31.90;12.80
21255;DHT22;10785;50.674;17.954;2022-08-04T07:44:28;31.60;13.80
21255;DHT22;10785;50.674;17.954;2022-08-04T07:46:59;31.40;13.50
21255;DHT22;10785;50.674;17.954;2022-08-04T07:49:29;31.20;14.40
21255;DHT22;10785;50.674;17.954;2022-08-04T07:52:18;30.90;14.20
21255;DHT22;10785;50.674;17.954;2022-08-04T07:54:47;30.30;14.80
21255;DHT22;10785;50.674;17.954;2022-08-04T07:57:17;30.30;16.20
21255;DHT22;10785;50.674;17.954;2022-08-04T08:00:08;30.30;15.00
21255;DHT22;10785;50.674;17.954;2022-08-04T08:02:41;30.40;14.90
21255;DHT22;10785;50.674;17.954;2022-08-04T08:05:13;30.20;16.20
21255;DHT22;10785;50.674;17.954;2022-08-04T08:07:44;30.20;15.70
21255;DHT22;10785;50.674;17.954;2022-08-04T08:10:21;30.00;16.10
21255;DHT22;10785;50.674;17.954;2022-08-04T08:12:50;30.10;15.40
21255;DHT22;10785;50.674;17.954;2022-08-04T08:15:20;29.90;16.20
21255;DHT22;10785;50.674;17.954;2022-08-04T08:17:49;30.00;15.60
21255;DHT22;10785;50.674;17.954;2022-08-04T08:20:29;29.90;15.20
21255;DHT22;10785;50.674;17.954;2022-08-04T08:22:59;29.90;15.20
21255;DHT22;10785;50.674;17.954;2022-08-04T08:25:29;29.80;15.80
21255;DHT22;10785;50.674;17.954;2022-08-04T08:27:59;29.60;14.50
21255;DHT22;10785;50.674;17.954;2022-08-04T08:30:30;29.40;15.20
21255;DHT22;10785;50.674;17.954;2022-08-04T08:33:02;29.50;15.90
21255;DHT22;10785;50.674;17.954;2022-08-04T08:35:41;29.60;15.60
21255;DHT22;10785;50.674;17.954;2022-08-04T08:38:33;29.50;15.30
21255;DHT22;10785;50.674;17.954;2022-08-04T08:44:09;29.20;16.30
21255;DHT22;10785;50.674;17.954;2022-08-04T08:47:07;29.40;16.20
21255;DHT22;10785;50.674;17.954;2022-08-04T08:52:51;29.40;16.30
21255;DHT22;10785;50.674;17.954;2022-08-04T08:55:48;29.60;16.10
21255;DHT22;10785;50.674;17.954;2022-08-04T08:58:34;29.50;16.50
21255;DHT22;10785;50.674;17.954;2022-08-04T09:01:11;29.40;15.60
21255;DHT22;10785;50.674;17.954;2022-08-04T09:07:12;29.30;14.90
21255;DHT22;10785;50.674;17.954;2022-08-04T09:10:01;29.50;15.00
21255;DHT22;10785;50.674;17.954;2022-08-04T09:12:48;29.60;15.00
21255;DHT22;10785;50.674;17.954;2022-08-04T09:15:26;29.50;14.50
21255;DHT22;10785;50.674;17.954;2022-08-04T09:18:01;29.40;14.20
21255;DHT22;10785;50.674;17.954;2022-08-04T09:20:38;29.50;14.50
21255;DHT22;10785;50.674;17.954;2022-08-04T09:23:22;29.50;14.50
21255;DHT22;10785;50.674;17.954;2022-08-04T09:25:59;29.30;15.20
21255;DHT22;10785;50.674;17.954;2022-08-04T09:28:37;29.20;14.70
21255;DHT22;10785;50.674;17.954;2022-08-04T09:31:29;29.20;14.60
21255;DHT22;10785;50.674;17.954;2022-08-04T09:34:31;29.30;14.50
21255;DHT22;10785;50.674;17.954;2022-08-04T09:37:08;29.30;15.20
21255;DHT22;10785;50.674;17.954;2022-08-04T09:39:46;29.40;14.20
21255;DHT22;10785;50.674;17.954;2022-08-04T09:42:27;29.40;13.20
21255;DHT22;10785;50.674;17.954;2022-08-04T09:45:09;29.30;13.40
21255;DHT22;10785;50.674;17.954;2022-08-04T09:47:56;29.40;12.40
21255;DHT22;10785;50.674;17.954;2022-08-04T09:50:33;29.40;13.40
21255;DHT22;10785;50.674;17.954;2022-08-04T09:55:59;29.40;13.80
21255;DHT22;10785;50.674;17.954;2022-08-04T09:58:39;29.50;13.80
21255;DHT22;10785;50.674;17.954;2022-08-04T10:01:15;29.50;13.20
21255;DHT22;10785;50.674;17.954;2022-08-04T10:03:51;29.40;12.40
21255;DHT22;10785;50.674;17.954;2022-08-04T10:06:43;29.60;12.70
21255;DHT22;10785;50.674;17.954;2022-08-04T10:09:38;29.60;11.70
21255;DHT22;10785;50.674;17.954;2022-08-04T10:12:30;29.70;12.20
21255;DHT22;10785;50.674;17.954;2022-08-04T10:15:09;29.60;11.70
21255;DHT22;10785;50.674;17.954;2022-08-04T10:18:03;29.60;11.50
21255;DHT22;10785;50.674;17.954;2022-08-04T10:20:48;29.50;12.30
21255;DHT22;10785;50.674;17.954;2022-08-04T10:23:37;29.50;12.50
21255;DHT22;10785;50.674;17.954;2022-08-04T10:26:33;29.50;11.80
21255;DHT22;10785;50.674;17.954;2022-08-04T10:29:07;29.50;11.30
21255;DHT22;10785;50.674;17.954;2022-08-04T10:31:50;29.70;10.80
21255;DHT22;10785;50.674;17.954;2022-08-04T10:34:26;29.70;11.60
21255;DHT22;10785;50.674;17.954;2022-08-04T10:37:02;29.80;11.40
21255;DHT22;10785;50.674;17.954;2022-08-04T10:39:38;29.90;11.20
21255;DHT22;10785;50.674;17.954;2022-08-04T10:42:18;29.90;11.70
21255;DHT22;10785;50.674;17.954;2022-08-04T10:44:58;29.90;10.90
21255;DHT22;10785;50.674;17.954;2022-08-04T10:47:41;30.00;10.90
21255;DHT22;10785;50.674;17.954;2022-08-04T10:50:20;30.00;11.00
21255;DHT22;10785;50.674;17.954;2022-08-04T10:52:56;29.90;11.50
21255;DHT22;10785;50.674;17.954;2022-08-04T10:55:31;29.90;11.60
21255;DHT22;10785;50.674;17.954;2022-08-04T10:58:24;30.20;11.70
21255;DHT22;10785;50.674;17.954;2022-08-04T11:01:18;30.40;10.80
21255;DHT22;10785;50.674;17.954;2022-08-04T11:04:16;30.50;10.60
21255;DHT22;10785;50.674;17.954;2022-08-04T11:06:55;30.30;10.90
21255;DHT22;10785;50.674;17.954;2022-08-04T11:09:27;30.50;10.90
21255;DHT22;10785;50.674;17.954;2022-08-04T11:12:02;30.40;11.00
21255;DHT22;10785;50.674;17.954;2022-08-04T11:14:37;30.30;9.80
21255;DHT22;10785;50.674;17.954;2022-08-04T11:17:10;30.40;10.70
21255;DHT22;10785;50.674;17.954;2022-08-04T11:19:48;30.50;10.70
21255;DHT22;10785;50.674;17.954;2022-08-04T11:22:42;30.40;10.60
21255;DHT22;10785;50.674;17.954;2022-08-04T11:25:21;30.50;10.60
21255;DHT22;10785;50.674;17.954;2022-08-04T11:27:54;30.70;11.00
21255;DHT22;10785;50.674;17.954;2022-08-04T11:30:41;30.70;10.70
21255;DHT22;10785;50.674;17.954;2022-08-04T11:33:21;30.60;10.20
21255;DHT22;10785;50.674;17.954;2022-08-04T11:36:01;30.30;9.60
21255;DHT22;10785;50.674;17.954;2022-08-04T11:38:35;30.20;10.10
21255;DHT22;10785;50.674;17.954;2022-08-04T11:41:08;30.30;10.30
21255;DHT22;10785;50.674;17.954;2022-08-04T11:43:43;30.30;10.90
21255;DHT22;10785;50.674;17.954;2022-08-04T11:46:35;30.40;11.30
21255;DHT22;10785;50.674;17.954;2022-08-04T11:49:09;30.50;11.20
21255;DHT22;10785;50.674;17.954;2022-08-04T11:51:42;30.50;11.30
21255;DHT22;10785;50.674;17.954;2022-08-04T11:54:12;30.50;11.40
21255;DHT22;10785;50.674;17.954;2022-08-04T11:56:41;30.70;11.60
21255;DHT22;10785;50.674;17.954;2022-08-04T11:59:10;30.60;10.90
21255;DHT22;10785;50.674;17.954;2022-08-04T12:01:49;30.60;10.80
21255;DHT22;10785;50.674;17.954;2022-08-04T12:04:33;30.60;11.00
21255;DHT22;10785;50.674;17.954;2022-08-04T12:07:13;30.60;10.70
21255;DHT22;10785;50.674;17.954;2022-08-04T12:10:17;30.50;10.80
21255;DHT22;10785;50.674;17.954;2022-08-04T12:13:12;30.60;10.80
21255;DHT22;10785;50.674;17.954;2022-08-04T12:15:51;30.90;10.50
21255;DHT22;10785;50.674;17.954;2022-08-04T12:18:21;31.00;10.40
21255;DHT22;10785;50.674;17.954;2022-08-04T12:21:06;31.00;10.30
21255;DHT22;10785;50.674;17.954;2022-08-04T12:23:44;30.90;10.40
21255;DHT22;10785;50.674;17.954;2022-08-04T12:26:26;30.90;10.90
21255;DHT22;10785;50.674;17.954;2022-08-04T12:28:59;30.90;10.70
21255;DHT22;10785;50.674;17.954;2022-08-04T12:31:43;31.00;11.20
21255;DHT22;10785;50.674;17.954;2022-08-04T12:34:16;30.90;10.20
21255;DHT22;10785;50.674;17.954;2022-08-04T12:36:53;30.80;9.60
21255;DHT22;10785;50.674;17.954;2022-08-04T12:39:26;30.80;9.80
21255;DHT22;10785;50.674;17.954;2022-08-04T12:42:00;30.90;9.70
21255;DHT22;10785;50.674;17.954;2022-08-04T12:44:33;30.80;10.10
21255;DHT22;10785;50.674;17.954;2022-08-04T12:47:07;30.70;10.00
21255;DHT22;10785;50.674;17.954;2022-08-04T12:49:59;30.60;10.10
21255;DHT22;10785;50.674;17.954;2022-08-04T12:52:33;30.60;9.70
21255;DHT22;10785;50.674;17.954;2022-08-04T12:55:31;30.70;10.10
21255;DHT22;10785;50.674;17.954;2022-08-04T12:58:01;30.60;9.40
21255;DHT22;10785;50.674;17.954;2022-08-04T13:00:34;30.60;9.70
21255;DHT22;10785;50.674;17.954;2022-08-04T13:03:10;30.40;9.40
21255;DHT22;10785;50.674;17.954;2022-08-04T13:05:40;30.40;9.30
21255;DHT22;10785;50.674;17.954;2022-08-04T13:08:10;30.50;9.60
21255;DHT22;10785;50.674;17.954;2022-08-04T13:10:49;30.50;9.00
21255;DHT22;10785;50.674;17.954;2022-08-04T13:13:23;30.40;9.10
21255;DHT22;10785;50.674;17.954;2022-08-04T13:15:57;30.40;9.00
21255;DHT22;10785;50.674;17.954;2022-08-04T13:18:27;30.40;9.70
21255;DHT22;10785;50.674;17.954;2022-08-04T13:21:13;30.40;9.10
21255;DHT22;10785;50.674;17.954;2022-08-04T13:23:50;30.70;9.30
21255;DHT22;10785;50.674;17.954;2022-08-04T13:26:47;30.80;9.00
21255;DHT22;10785;50.674;17.954;2022-08-04T13:29:29;30.80;9.40
21255;DHT22;10785;50.674;17.954;2022-08-04T13:32:20;30.70;9.40
21255;DHT22;10785;50.674;17.954;2022-08-04T13:34:51;30.70;10.10
21255;DHT22;10785;50.674;17.954;2022-08-04T13:37:24;30.70;9.60
21255;DHT22;10785;50.674;17.954;2022-08-04T13:39:54;30.70;9.60
21255;DHT22;10785;50.674;17.954;2022-08-04T13:42:26;30.80;9.80
21255;DHT22;10785;50.674;17.954;2022-08-04T13:44:57;30.80;9.00
21255;DHT22;10785;50.674;17.954;2022-08-04T13:47:29;30.80;9.00
21255;DHT22;10785;50.674;17.954;2022-08-04T13:50:09;30.70;8.40
21255;DHT22;10785;50.674;17.954;2022-08-04T13:52:39;30.60;8.40
21255;DHT22;10785;50.674;17.954;2022-08-04T13:55:20;30.70;8.40
21255;DHT22;10785;50.674;17.954;2022-08-04T13:57:54;30.70;8.70
21255;DHT22;10785;50.674;17.954;2022-08-04T14:00:25;30.70;8.50
21255;DHT22;10785;50.674;17.954;2022-08-04T14:03:00;30.70;8.80
21255;DHT22;10785;50.674;17.954;2022-08-04T14:06:11;30.60;8.60
21255;DHT22;10785;50.674;17.954;2022-08-04T14:08:48;30.60;8.50
21255;DHT22;10785;50.674;17.954;2022-08-04T14:11:19;30.50;8.30
21255;DHT22;10785;50.674;17.954;2022-08-04T14:14:17;30.50;8.00
21255;DHT22;10785;50.674;17.954;2022-08-04T14:17:10;30.50;8.10
21255;DHT22;10785;50.674;17.954;2022-08-04T14:19:52;30.70;8.10
21255;DHT22;10785;50.674;17.954;2022-08-04T14:22:33;30.70;8.00
21255;DHT22;10785;50.674;17.954;2022-08-04T14:25:05;30.80;7.90
21255;DHT22;10785;50.674;17.954;2022-08-04T14:27:43;30.80;7.70
21255;DHT22;10785;50.674;17.954;2022-08-04T14:30:24;30.60;7.80
21255;DHT22;10785;50.674;17.954;2022-08-04T14:32:55;30.70;7.70
21255;DHT22;10785;50.674;17.954;2022-08-04T14:35:25;30.60;7.60
21255;DHT22;10785;50.674;17.954;2022-08-04T14:38:13;30.60;7.70
21255;DHT22;10785;50.674;17.954;2022-08-04T14:40:42;30.70;7.70
21255;DHT22;10785;50.674;17.954;2022-08-04T14:43:16;30.70;7.80
21255;DHT22;10785;50.674;17.954;2022-08-04T14:45:46;30.70;7.30
21255;DHT22;10785;50.674;17.954;2022-08-04T14:48:21;30.60;7.60
21255;DHT22;10785;50.674;17.954;2022-08-04T14:50:50;30.60;7.60
21255;DHT22;10785;50.674;17.954;2022-08-04T14:53:20;30.50;7.30
21255;DHT22;10785;50.674;17.954;2022-08-04T14:55:50;30.40;7.30
21255;DHT22;10785;50.674;17.954;2022-08-04T14:58:20;30.40;7.60
21255;DHT22;10785;50.674;17.954;2022-08-04T15:01:07;30.40;7.60
21255;DHT22;10785;50.674;17.954;2022-08-04T15:03:40;30.50;7.70
21255;DHT22;10785;50.674;17.954;2022-08-04T15:06:20;30.50;7.70
21255;DHT22;10785;50.674;17.954;2022-08-04T15:08:50;30.60;7.60
21255;DHT22;10785;50.674;17.954;2022-08-04T15:11:20;30.50;7.50
21255;DHT22;10785;50.674;17.954;2022-08-04T15:13:51;30.50;7.40
21255;DHT22;10785;50.674;17.954;2022-08-04T15:16:22;30.50;7.50
21255;DHT22;10785;50.674;17.954;2022-08-04T15:18:52;30.50;7.30
21255;DHT22;10785;50.674;17.954;2022-08-04T15:21:24;30.50;7.30
21255;DHT22;10785;50.674;17.954;2022-08-04T15:23:55;30.50;7.60
21255;DHT22;10785;50.674;17.954;2022-08-04T15:26:29;30.60;7.50
21255;DHT22;10785;50.674;17.954;2022-08-04T15:29:04;30.50;8.00
21255;DHT22;10785;50.674;17.954;2022-08-04T15:31:39;30.60;7.80
21255;DHT22;10785;50.674;17.954;2022-08-04T15:34:43;30.50;8.20
21255;DHT22;10785;50.674;17.954;2022-08-04T15:37:17;30.40;7.70
21255;DHT22;10785;50.674;17.954;2022-08-04T15:39:50;30.50;7.70
21255;DHT22;10785;50.674;17.954;2022-08-04T15:42:29;30.60;7.80
21255;DHT22;10785;50.674;17.954;2022-08-04T15:45:19;30.50;7.80
21255;DHT22;10785;50.674;17.954;2022-08-04T15:48:23;30.60;7.80
21255;DHT22;10785;50.674;17.954;2022-08-04T15:51:15;30.50;7.90
21255;DHT22;10785;50.674;17.954;2022-08-04T15:54:19;30.50;7.80
21255;DHT22;10785;50.674;17.954;2022-08-04T15:56:57;30.50;8.00
21255;DHT22;10785;50.674;17.954;2022-08-04T15:59:55;30.50;8.00
21255;DHT22;10785;50.674;17.954;2022-08-04T16:05:35;30.50;8.10
21255;DHT22;10785;50.674;17.954;2022-08-04T16:08:13;30.50;8.20
21255;DHT22;10785;50.674;17.954;2022-08-04T16:10:49;30.50;7.90
21255;DHT22;10785;50.674;17.954;2022-08-04T16:13:19;30.50;7.80
21255;DHT22;10785;50.674;17.954;2022-08-04T16:15:50;30.50;7.70
21255;DHT22;10785;50.674;17.954;2022-08-04T16:18:35;30.40;7.80
21255;DHT22;10785;50.674;17.954;2022-08-04T16:21:17;30.40;8.10
21255;DHT22;10785;50.674;17.954;2022-08-04T16:24:05;30.40;8.30
21255;DHT22;10785;50.674;17.954;2022-08-04T16:26:50;30.40;8.40
21255;DHT22;10785;50.674;17.954;2022-08-04T16:29:46;30.30;8.60
21255;DHT22;10785;50.674;17.954;2022-08-04T16:32:19;30.20;8.70
21255;DHT22;10785;50.674;17.954;2022-08-04T16:34:53;30.20;8.90
21255;DHT22;10785;50.674;17.954;2022-08-04T16:37:30;30.10;9.00
21255;DHT22;10785;50.674;17.954;2022-08-04T16:40:29;30.00;9.30
21255;DHT22;10785;50.674;17.954;2022-08-04T16:43:06;30.00;9.50
21255;DHT22;10785;50.674;17.954;2022-08-04T16:45:53;29.90;9.60
21255;DHT22;10785;50.674;17.954;2022-08-04T16:48:25;29.90;9.80
21255;DHT22;10785;50.674;17.954;2022-08-04T16:50:56;29.80;9.80
21255;DHT22;10785;50.674;17.954;2022-08-04T16:53:35;29.70;9.80
21255;DHT22;10785;50.674;17.954;2022-08-04T16:56:29;29.60;9.90
21255;DHT22;10785;50.674;17.954;2022-08-04T16:59:07;29.70;10.60
21255;DHT22;10785;50.674;17.954;2022-08-04T17:01:37;29.60;10.20
21255;DHT22;10785;50.674;17.954;2022-08-04T17:04:12;29.50;9.80
21255;DHT22;10785;50.674;17.954;2022-08-04T17:06:42;29.40;9.80
21255;DHT22;10785;50.674;17.954;2022-08-04T17:09:16;29.40;9.90
21255;DHT22;10785;50.674;17.954;2022-08-04T17:11:46;29.40;10.10
21255;DHT22;10785;50.674;17.954;2022-08-04T17:14:20;29.40;10.30
21255;DHT22;10785;50.674;17.954;2022-08-04T17:16:49;29.20;10.40
21255;DHT22;10785;50.674;17.954;2022-08-04T17:19:18;29.20;10.50
21255;DHT22;10785;50.674;17.954;2022-08-04T17:21:56;29.10;10.70
21255;DHT22;10785;50.674;17.954;2022-08-04T17:24:37;29.10;10.90
21255;DHT22;10785;50.674;17.954;2022-08-04T17:27:07;29.00;10.80
21255;DHT22;10785;50.674;17.954;2022-08-04T17:29:57;29.00;11.00
21255;DHT22;10785;50.674;17.954;2022-08-04T17:32:26;28.90;11.00